Slayton, MN

9:52 AM CDT on October 01, 2014 (GMT -0500)
Slayton | Change Station
CLOSE
Current Station
Airport
Location: Slayton,
Elevation: 1624 ft
Nearby Weather Stations

Elev 1624 ft 43.99 °N, 95.78 °W | Updated -98 second ago

Overcast
Overcast
49 °F
Feels Like 49 °F
N
10
Wind Variable Wind from ESE
Gusts 21 mph

Today
High -- | Low -- °F
--% Chance of Precip.
Yesterday
High -- | Low -- °F
Precip. -- in
7:20 AM 7:03 PM
Waxing Crescent, 48% visible
Pressure 29.92 in
Visibility 1.8 miles
Clouds Overcast 200 ft
Dew Point 48 °F
Humidity 99%
Rainfall 0.00 in
Snow Depth Not available.
UV 1 out of 12
Pollen 2.80 out of 12
Air Quality Not available.
Flu Activity Not available.
METAR KDVP 301454Z AUTO 11009G18KT 1 3/4SM BR OVC002 09/09 A2992 RMK AO2 VIS 1V2 1/2 T00930091

More Conditions Fewer Conditions

Pressure 29.92 in
Visibility 1.8 miles
Clouds Overcast 200 ft
Dew Point 48 °F
Humidity 99%
Rainfall 0.00 in
Snow Depth Not available.
UV 1 out of 12
Pollen 2.80 out of 12
Air Quality Not available.
Flu Activity Not available.
METAR KDVP 301454Z AUTO 11009G18KT 1 3/4SM BR OVC002 09/09 A2992 RMK AO2 VIS 1V2 1/2 T00930091

More Conditions Fewer Conditions

10-Day Weather Forecast

Almanac

Astronomy

Oct. 01, 2014 Rise Set
Actual Time 7:20 AM CDT 7:03 PM CDT
Civil Twilight 6:51 AM CDT 7:32 PM CDT
Nautical Twilight 6:18 AM CDT 8:05 PM CDT
Astronomical Twilight 5:44 AM CDT 8:39 PM CDT
Moon 2:31 PM CDT No Moon Set
Length of Visible Light 12h 40m
Length of Day
11h 43m
Tomorrow will be 3m 0s shorter.
Waxing Crescent, 48% of the Moon is Illuminated
Today
Waxing Crescent
Oct 1
First Quarter
Oct 8
Full
Oct 15
Last Quarter
Oct 23
New

Today's Extremes

State Highs State Lows

Community

WunderPhotos

Upload Photos

1,757,960 photos uploaded!

Nearby

Snow Depth

Station Depth Elevation
No new snow has been reported.

Earthquake Activity

City Distance Mag. Time & Date
No recent earthquake activity has been reported nearby.
Minimum magnitude displayed is 2.5.

Coastal Water Temperatures

Place Temperature
No Stations Reporting

Nearby Weather Stations